Time;durP1;ratioP1;P1;durP2;ratioP2;P2;SDS_P1;SDS_P2;PMS_P1;PMS_P2;Temp;Humidity;BMP_temperature;BMP_pressure;BME280_temperature;BME280_humidity;BME280_pressure;Samples;Min_cycle;Max_cycle;Signal;HPM_P1;HPM_P2
2022/09/27 00:01:57;;;;;;;6.18;1.45;;;;;;;9.41;100.00;99599.31;4954009;29;20069;-63
2022/09/27 00:04:22;;;;;;;4.28;1.80;;;;;;;9.41;100.00;99594.81;4954315;29;20031;-64
2022/09/27 00:06:47;;;;;;;5.70;1.90;;;;;;;9.42;100.00;99599.06;4954603;29;20077;-64
2022/09/27 00:09:13;;;;;;;7.00;1.83;;;;;;;9.41;100.00;99594.81;4954153;29;20040;-64
2022/09/27 00:11:43;;;;;;;5.43;1.63;;;;;;;9.41;100.00;99607.28;4954256;29;20505;-66
2022/09/27 00:14:11;;;;;;;4.35;1.52;;;;;;;9.43;100.00;99607.88;4954253;28;20492;-66
2022/09/27 00:16:38;;;;;;;9.55;1.75;;;;;;;9.42;100.00;99603.59;4954148;29;20706;-66
2022/09/27 00:19:07;;;;;;;5.65;1.63;;;;;;;9.40;100.00;99603.78;4954060;28;20035;-66
2022/09/27 00:21:32;;;;;;;4.70;1.85;;;;;;;9.39;100.00;99610.16;4953973;29;20027;-66
2022/09/27 00:23:58;;;;;;;6.22;1.50;;;;;;;9.42;100.00;99611.56;4936836;29;20094;-64
2022/09/27 00:26:24;;;;;;;3.42;1.60;;;;;;;9.43;100.00;99607.88;4953969;28;20094;-64
2022/09/27 00:28:50;;;;;;;2.35;1.52;;;;;;;9.41;100.00;99613.44;4954701;29;20023;-64
2022/09/27 00:31:28;;;;;;;7.13;1.30;;;;;;;9.44;100.00;99609.50;4955246;28;20110;-64
2022/09/27 00:33:54;;;;;;;6.25;2.25;;;;;;;9.43;100.00;99610.53;4953932;28;20034;-66
2022/09/27 00:36:21;;;;;;;5.85;1.52;;;;;;;9.43;100.00;99619.34;4953699;29;20086;-64
2022/09/27 00:38:47;;;;;;;5.57;2.05;;;;;;;9.43;100.00;99626.50;4953698;29;20031;-64
2022/09/27 00:41:22;;;;;;;6.53;2.47;;;;;;;9.44;100.00;99633.47;4920829;29;20089;-64
2022/09/27 00:43:50;;;;;;;3.83;1.83;;;;;;;9.44;100.00;99633.47;4953541;28;20035;-64
2022/09/27 00:46:25;;;;;;;2.47;1.45;;;;;;;9.44;100.00;99628.16;4953702;29;20491;-65
2022/09/27 00:49:09;;;;;;;6.45;1.75;;;;;;;9.42;100.00;99622.22;4953764;29;20024;-64
2022/09/27 00:51:38;;;;;;;4.78;1.55;;;;;;;9.41;100.00;99625.94;4953554;29;20391;-64
2022/09/27 00:54:06;;;;;;;5.43;1.55;;;;;;;9.43;100.00;99621.19;4953444;29;20031;-64
2022/09/27 00:56:32;;;;;;;6.32;2.05;;;;;;;9.44;100.00;99631.63;4953623;29;20031;-64
2022/09/27 00:59:06;;;;;;;3.72;1.30;;;;;;;9.42;100.00;99624.88;4953614;29;20039;-65
2022/09/27 01:01:32;;;;;;;4.50;1.10;;;;;;;9.45;100.00;99643.06;4953462;29;20139;-64
2022/09/27 01:04:07;;;;;;;4.97;1.30;;;;;;;9.47;100.00;99642.84;4953480;29;20061;-64
2022/09/27 01:06:34;;;;;;;5.97;1.33;;;;;;;9.47;100.00;99645.53;4953288;29;20031;-64
2022/09/27 01:08:59;;;;;;;2.35;1.05;;;;;;;9.47;100.00;99642.84;4946026;29;20099;-64
2022/09/27 01:11:35;;;;;;;5.97;1.00;;;;;;;9.48;100.00;99655.13;4934327;29;20043;-64
2022/09/27 01:14:10;;;;;;;3.58;0.88;;;;;;;9.49;100.00;99641.59;4934437;29;20087;-64
2022/09/27 01:16:51;;;;;;;1.75;0.50;;;;;;;9.47;100.00;99638.34;4952985;29;20037;-65
2022/09/27 01:19:26;;;;;;;3.42;1.00;;;;;;;9.45;100.00;99632.41;4952887;29;20042;-64
2022/09/27 01:22:21;;;;;;;4.15;0.70;;;;;;;9.47;100.00;99633.03;4952859;29;20407;-64
2022/09/27 01:25:15;;;;;;;3.55;0.85;;;;;;;9.45;100.00;99643.06;4918318;29;20126;-64
2022/09/27 01:28:14;;;;;;;3.25;1.27;;;;;;;9.45;100.00;99635.09;4945548;29;20051;-64
2022/09/27 01:30:41;;;;;;;5.78;2.33;;;;;;;9.42;100.00;99630.19;4952861;29;20118;-66
2022/09/27 01:33:28;;;;;;;3.03;0.85;;;;;;;9.41;100.00;99631.25;4952830;29;20027;-66
2022/09/27 01:36:12;;;;;;;6.07;1.45;;;;;;;9.39;100.00;99630.66;4952690;29;20031;-66
2022/09/27 01:38:58;;;;;;;0.65;0.60;;;;;;;9.36;100.00;99636.41;4952592;29;20039;-66
2022/09/27 01:41:48;;;;;;;4.10;0.98;;;;;;;9.36;100.00;99647.06;4952700;29;20046;-66
2022/09/27 01:44:21;;;;;;;1.23;0.80;;;;;;;9.33;100.00;99650.16;4952566;29;20398;-66
2022/09/27 01:46:53;;;;;;;2.00;0.60;;;;;;;9.31;100.00;99642.38;4952412;29;20037;-66
2022/09/27 01:49:30;;;;;;;5.82;1.50;;;;;;;9.27;100.00;99646.50;4952477;29;20061;-66
2022/09/27 01:52:00;;;;;;;4.38;1.30;;;;;;;9.25;100.00;99651.25;4952321;28;20030;-66
2022/09/27 01:54:39;;;;;;;2.83;0.60;;;;;;;9.24;100.00;99654.91;4952442;29;20478;-66
2022/09/27 01:57:09;;;;;;;5.93;0.75;;;;;;;9.20;100.00;99651.06;4952413;29;20063;-66
2022/09/27 01:59:49;;;;;;;6.90;1.92;;;;;;;9.18;100.00;99650.47;4952397;29;20029;-66
2022/09/27 02:02:16;;;;;;;1.75;0.90;;;;;;;9.18;100.00;99653.13;4952129;29;20027;-66
2022/09/27 02:04:43;;;;;;;4.65;1.58;;;;;;;9.17;100.00;99657.66;4952358;29;20030;-66
2022/09/27 02:07:17;;;;;;;5.88;1.30;;;;;;;9.16;100.00;99661.31;4951983;29;20515;-66
2022/09/27 02:10:15;;;;;;;3.75;1.20;;;;;;;9.13;100.00;99653.78;4952243;29;20043;-66
2022/09/27 02:12:50;;;;;;;11.00;1.50;;;;;;;9.13;100.00;99659.09;4951861;29;20035;-66
2022/09/27 02:15:17;;;;;;;3.58;0.93;;;;;;;9.12;100.00;99649.50;4952128;29;20035;-66
2022/09/27 02:18:00;;;;;;;2.72;0.95;;;;;;;9.11;100.00;99650.50;4952002;29;20038;-66
2022/09/27 02:20:30;;;;;;;1.88;0.70;;;;;;;9.08;100.00;99658.13;4951822;29;20031;-66
2022/09/27 02:22:55;;;;;;;2.15;0.82;;;;;;;9.07;100.00;99657.31;4951479;28;20521;-66
2022/09/27 02:25:37;;;;;;;5.57;1.17;;;;;;;9.05;100.00;99658.56;4952038;28;20039;-66
2022/09/27 02:28:41;;;;;;;3.38;0.80;;;;;;;9.00;100.00;99654.69;4951752;29;20306;-66
2022/09/27 02:31:07;;;;;;;1.35;0.65;;;;;;;8.95;100.00;99646.53;4899713;29;20100;-66
2022/09/27 02:33:39;;;;;;;1.70;0.80;;;;;;;8.96;100.00;99653.50;4951972;29;20066;-66
2022/09/27 02:36:05;;;;;;;3.70;0.95;;;;;;;8.93;100.00;99659.25;4951768;29;20027;-66
2022/09/27 02:38:31;;;;;;;5.07;1.08;;;;;;;8.90;100.00;99664.97;4951610;29;20177;-66
2022/09/27 02:40:56;;;;;;;3.30;1.05;;;;;;;8.89;100.00;99666.03;4951506;29;20054;-66
2022/09/27 02:43:25;;;;;;;5.45;0.90;;;;;;;8.89;100.00;99665.22;4951470;29;20039;-66
2022/09/27 02:46:08;;;;;;;2.30;0.88;;;;;;;8.89;100.00;99670.53;4951455;29;20023;-66
2022/09/27 02:48:55;;;;;;;4.28;0.85;;;;;;;8.85;100.00;99666.66;4951521;29;20027;-66
2022/09/27 02:51:41;;;;;;;3.63;1.15;;;;;;;8.83;100.00;99666.06;4951566;28;20035;-66
2022/09/27 02:54:19;;;;;;;2.38;1.17;;;;;;;8.78;100.00;99661.41;4951380;29;20031;-66
2022/09/27 02:57:13;;;;;;;4.70;0.68;;;;;;;8.77;100.00;99662.41;4951979;29;20378;-66
2022/09/27 03:00:06;;;;;;;2.17;0.95;;;;;;;8.75;100.00;99659.97;4948947;29;20047;-66
2022/09/27 03:02:59;;;;;;;2.30;0.93;;;;;;;8.70;100.00;99654.50;4951134;29;20027;-66
2022/09/27 03:05:29;;;;;;;4.63;2.03;;;;;;;8.63;100.00;99652.91;4951126;29;20035;-68
2022/09/27 03:07:54;;;;;;;2.90;1.08;;;;;;;8.60;100.00;99659.47;4950826;29;20050;-66
2022/09/27 03:10:23;;;;;;;0.70;0.70;;;;;;;8.58;100.00;99645.56;4951095;29;20077;-66
2022/09/27 03:12:49;;;;;;;0.98;0.95;;;;;;;8.58;100.00;99666.81;4951124;29;20486;-66
2022/09/27 03:15:15;;;;;;;2.20;1.05;;;;;;;8.48;100.00;99654.00;4950946;29;20042;-66
2022/09/27 03:17:40;;;;;;;3.50;0.90;;;;;;;8.54;100.00;99661.13;4951035;29;20094;-66
2022/09/27 03:20:06;;;;;;;4.32;0.93;;;;;;;8.51;100.00;99661.56;4950965;28;20023;-66
2022/09/27 03:22:32;;;;;;;2.85;1.38;;;;;;;8.48;100.00;99669.94;4950771;28;20051;-66
2022/09/27 03:24:57;;;;;;;5.00;0.95;;;;;;;8.47;100.00;99663.00;4950822;29;20415;-66
2022/09/27 03:27:23;;;;;;;3.58;0.80;;;;;;;8.47;100.00;99659.53;4951065;29;20446;-66
2022/09/27 03:29:48;;;;;;;1.80;0.98;;;;;;;8.47;100.00;99654.22;4950955;28;20956;-66
2022/09/27 03:32:14;;;;;;;2.92;1.45;;;;;;;8.46;100.00;99656.06;4950885;29;20043;-68
2022/09/27 03:34:39;;;;;;;1.98;0.70;;;;;;;8.45;100.00;99657.06;4951485;28;20027;-67
2022/09/27 03:37:04;;;;;;;4.28;0.85;;;;;;;8.44;100.00;99667.94;4956990;28;20086;-68
2022/09/27 03:39:30;;;;;;;2.28;0.90;;;;;;;8.40;100.00;99664.06;4957163;28;20034;-67
2022/09/27 03:41:56;;;;;;;6.20;1.70;;;;;;;8.39;100.00;99668.56;4957011;28;20031;-67
2022/09/27 03:44:21;;;;;;;3.38;1.00;;;;;;;8.37;100.00;99667.91;4957271;28;20110;-67
2022/09/27 03:46:46;;;;;;;5.72;1.17;;;;;;;8.35;100.00;99676.09;4939843;29;20131;-67
2022/09/27 03:49:12;;;;;;;2.55;1.15;;;;;;;8.41;100.00;99673.63;4956872;28;20041;-67
2022/09/27 03:51:37;;;;;;;4.10;0.77;;;;;;;8.40;100.00;99682.66;4957188;28;20166;-67
2022/09/27 03:54:03;;;;;;;2.92;1.08;;;;;;;8.40;100.00;99691.44;4957002;28;20106;-67
2022/09/27 03:56:28;;;;;;;5.43;1.17;;;;;;;8.35;100.00;99697.34;4957084;28;20078;-67
2022/09/27 03:58:53;;;;;;;2.03;0.75;;;;;;;8.45;100.00;99725.34;4957094;28;20070;-69
2022/09/27 04:01:19;;;;;;;3.25;1.27;;;;;;;8.47;100.00;99723.31;4957007;29;20483;-67
2022/09/27 04:03:44;;;;;;;4.93;1.73;;;;;;;8.48;100.00;99720.41;4956937;28;20029;-66
2022/09/27 04:06:10;;;;;;;2.65;0.77;;;;;;;8.52;100.00;99721.63;4956919;28;20039;-66
2022/09/27 04:08:35;;;;;;;4.35;1.23;;;;;;;8.56;100.00;99725.50;4956676;28;20045;-66
2022/09/27 04:11:02;;;;;;;4.20;1.25;;;;;;;8.58;100.00;99711.19;4957290;29;20138;-65
2022/09/27 04:13:28;;;;;;;6.13;1.58;;;;;;;8.57;100.00;99718.34;4956847;29;20053;-66
2022/09/27 04:15:53;;;;;;;4.63;1.50;;;;;;;8.54;100.00;99706.31;4956928;29;20109;-65
2022/09/27 04:18:18;;;;;;;4.47;1.30;;;;;;;8.53;100.00;99706.50;4956753;29;20379;-65
2022/09/27 04:20:44;;;;;;;1.75;0.60;;;;;;;8.42;100.00;99693.88;4956816;29;20109;-66
2022/09/27 04:23:09;;;;;;;2.38;0.63;;;;;;;8.43;100.00;99698.97;4956608;29;20055;-65
2022/09/27 04:25:35;;;;;;;1.60;0.68;;;;;;;8.37;100.00;99685.69;4956788;28;20031;-65
2022/09/27 04:28:01;;;;;;;2.92;0.82;;;;;;;8.34;100.00;99681.63;4956728;28;20076;-65
2022/09/27 04:30:28;;;;;;;0.50;0.50;;;;;;;8.31;100.00;99676.75;4956903;28;20066;-65
2022/09/27 04:32:53;;;;;;;0.57;0.50;;;;;;;8.28;100.00;99664.69;4956980;29;20027;-65
2022/09/27 04:38:03;;;;;;;5.63;0.80;;;;;;;8.23;100.00;99658.38;4956964;29;20037;-66
2022/09/27 04:40:29;;;;;;;3.03;0.80;;;;;;;8.21;100.00;99671.88;4956634;28;20031;-66
2022/09/27 04:42:55;;;;;;;2.20;0.85;;;;;;;8.20;100.00;99666.75;4956903;29;20035;-65
2022/09/27 04:45:21;;;;;;;2.35;0.63;;;;;;;8.19;100.00;99670.44;4938222;29;20599;-65
2022/09/27 04:47:48;;;;;;;3.20;0.90;;;;;;;8.20;100.00;99680.03;4935778;29;20115;-66
2022/09/27 04:50:16;;;;;;;1.23;0.68;;;;;;;8.20;100.00;99674.72;4935236;28;20039;-65
2022/09/27 04:52:42;;;;;;;10.23;1.63;;;;;;;8.19;100.00;99678.41;4935315;29;20036;-65
2022/09/27 04:55:08;;;;;;;2.72;1.48;;;;;;;8.17;100.00;99675.13;4935193;29;20109;-66
2022/09/27 04:57:34;;;;;;;5.00;0.90;;;;;;;8.21;100.00;99681.69;4953250;29;20035;-66
2022/09/27 04:59:59;;;;;;;0.70;0.68;;;;;;;8.21;100.00;99693.13;4953253;28;20127;-65
2022/09/27 05:02:28;;;;;;;0.95;0.60;;;;;;;8.18;100.00;99688.22;4953465;29;20027;-67
2022/09/27 05:04:58;;;;;;;4.25;0.80;;;;;;;8.21;100.00;99701.06;4953317;29;20031;-67
2022/09/27 05:07:25;;;;;;;2.97;0.70;;;;;;;8.21;100.00;99714.34;4953282;29;20042;-67
2022/09/27 05:09:51;;;;;;;2.33;0.98;;;;;;;8.21;100.00;99709.06;4953052;29;20046;-67
2022/09/27 05:12:16;;;;;;;5.00;1.38;;;;;;;8.21;100.00;99730.28;4953128;28;20035;-67
2022/09/27 05:14:41;;;;;;;2.22;1.10;;;;;;;8.19;100.00;99737.66;4953089;29;20031;-67
2022/09/27 05:17:07;;;;;;;2.53;1.05;;;;;;;8.18;100.00;99741.34;4953048;28;20126;-67
2022/09/27 05:19:33;;;;;;;2.00;0.70;;;;;;;8.18;100.00;99741.34;4953437;29;20046;-67
2022/09/27 05:21:59;;;;;;;2.10;0.82;;;;;;;8.17;100.00;99742.34;4952974;29;20059;-67
2022/09/27 05:24:24;;;;;;;2.05;0.80;;;;;;;8.17;100.00;99750.31;4952987;29;20035;-67
2022/09/27 05:26:49;;;;;;;3.47;1.23;;;;;;;8.13;100.00;99739.31;4952945;28;20128;-67
2022/09/27 05:29:16;;;;;;;3.00;0.50;;;;;;;8.12;100.00;99728.88;4952893;28;20123;-67
2022/09/27 05:31:42;;;;;;;3.85;1.15;;;;;;;8.11;100.00;99722.75;4952871;29;20031;-67
2022/09/27 05:34:09;;;;;;;7.95;1.10;;;;;;;8.09;100.00;99726.63;4952725;28;20034;-65
2022/09/27 05:36:36;;;;;;;3.58;0.65;;;;;;;8.06;100.00;99708.47;4935863;29;20230;-66
2022/09/27 05:39:01;;;;;;;0.98;0.80;;;;;;;8.04;100.00;99707.84;4934451;29;20047;-65
2022/09/27 05:41:27;;;;;;;1.02;0.50;;;;;;;8.00;100.00;99710.13;4917315;29;20480;-65
2022/09/27 05:43:52;;;;;;;4.13;1.70;;;;;;;8.00;100.00;99707.47;4934252;29;20400;-65
2022/09/27 05:46:17;;;;;;;0.68;0.68;;;;;;;8.01;100.00;99714.41;4934342;29;20110;-65
2022/09/27 05:48:43;;;;;;;1.65;0.77;;;;;;;7.97;100.00;99710.56;4952305;29;20554;-65
2022/09/27 05:51:08;;;;;;;2.28;0.57;;;;;;;8.03;100.00;99712.34;4952379;29;20038;-65
2022/09/27 05:53:33;;;;;;;1.58;0.82;;;;;;;8.04;100.00;99713.16;4952214;29;20054;-65
2022/09/27 05:56:03;;;;;;;3.70;0.93;;;;;;;8.04;100.00;99711.34;4952250;29;20045;-65
2022/09/27 05:58:29;;;;;;;3.78;1.02;;;;;;;8.06;100.00;99709.28;4951949;28;20058;-65
2022/09/27 06:00:54;;;;;;;2.80;0.65;;;;;;;8.09;100.00;99708.88;4952134;28;20122;-65
2022/09/27 06:03:19;;;;;;;1.27;0.60;;;;;;;8.10;100.00;99707.03;4952146;29;20031;-65
2022/09/27 06:05:45;;;;;;;1.33;0.93;;;;;;;8.11;100.00;99698.03;4934953;29;20443;-65
2022/09/27 06:08:11;;;;;;;2.20;0.77;;;;;;;8.10;100.00;99680.50;4951905;29;20419;-65
2022/09/27 06:10:38;;;;;;;0.75;0.75;;;;;;;8.12;100.00;99686.38;4952017;28;20109;-65
2022/09/27 06:13:14;;;;;;;1.35;1.15;;;;;;;8.13;100.00;99709.28;4952010;29;20031;-65
2022/09/27 06:15:42;;;;;;;0.60;0.50;;;;;;;8.10;100.00;99701.75;4951566;29;20112;-65
2022/09/27 06:18:14;;;;;;;2.40;0.70;;;;;;;8.10;100.00;99704.41;4951908;29;20027;-65
2022/09/27 06:20:41;;;;;;;3.08;0.90;;;;;;;8.11;100.00;99706.00;4951842;28;20097;-65
2022/09/27 06:23:09;;;;;;;4.22;0.88;;;;;;;8.11;100.00;99708.66;4951560;29;20054;-65
2022/09/27 06:25:35;;;;;;;1.77;0.80;;;;;;;8.09;100.00;99706.22;4951562;28;20542;-65
2022/09/27 06:28:02;;;;;;;4.50;1.23;;;;;;;8.07;100.00;99718.91;4934387;29;20041;-65
2022/09/27 06:30:28;;;;;;;2.90;0.90;;;;;;;8.13;100.00;99730.53;4941679;29;20043;-66
2022/09/27 06:33:01;;;;;;;2.95;0.68;;;;;;;8.15;100.00;99727.66;4933355;29;20091;-65
2022/09/27 06:35:28;;;;;;;0.50;0.50;;;;;;;8.17;100.00;99730.91;4935318;29;20031;-65
2022/09/27 06:37:54;;;;;;;0.88;0.88;;;;;;;8.17;100.00;99725.59;4933116;29;20034;-65
2022/09/27 06:40:21;;;;;;;0.70;0.70;;;;;;;8.17;100.00;99726.41;4933297;29;20035;-63
2022/09/27 06:42:46;;;;;;;2.20;1.70;;;;;;;8.15;100.00;99736.44;4933424;29;20384;-63
2022/09/27 06:45:12;;;;;;;2.05;0.60;;;;;;;8.17;100.00;99745.00;4950202;29;20031;-63
2022/09/27 06:47:37;;;;;;;0.60;0.60;;;;;;;8.17;100.00;99746.84;4933153;29;20043;-64
2022/09/27 06:50:04;;;;;;;0.60;0.60;;;;;;;8.17;100.00;99745.00;4932930;29;20028;-64
2022/09/27 06:52:30;;;;;;;1.05;0.70;;;;;;;8.17;100.00;99738.88;4950956;29;20114;-64
2022/09/27 06:54:55;;;;;;;0.88;0.55;;;;;;;8.17;100.00;99737.03;4944734;29;20035;-65
2022/09/27 07:00:25;;;;;;;2.95;0.80;;;;;;;8.19;100.00;99742.16;4933096;29;20399;-64
2022/09/27 07:02:51;;;;;;;0.88;0.57;;;;;;;8.20;100.00;99752.59;4932870;29;20087;-65
2022/09/27 07:05:17;;;;;;;3.05;1.15;;;;;;;8.20;100.00;99751.75;4932689;29;20035;-65
2022/09/27 07:07:47;;;;;;;2.33;0.90;;;;;;;8.21;100.00;99753.38;4932618;29;20483;-64
2022/09/27 07:10:13;;;;;;;2.58;1.00;;;;;;;8.23;100.00;99752.16;4914373;29;20040;-64
2022/09/27 07:12:38;;;;;;;2.45;0.77;;;;;;;8.24;100.00;99752.97;4932521;29;20036;-65
2022/09/27 07:15:05;;;;;;;3.05;1.33;;;;;;;8.26;100.00;99753.59;4932384;29;20032;-65
2022/09/27 07:17:31;;;;;;;1.92;1.33;;;;;;;8.27;100.00;99750.69;4932429;29;20114;-64
2022/09/27 07:19:56;;;;;;;5.03;1.70;;;;;;;8.30;100.00;99755.59;4932289;29;20162;-65
2022/09/27 07:22:22;;;;;;;6.20;1.48;;;;;;;8.32;100.00;99750.91;4932450;29;20492;-65
2022/09/27 07:24:47;;;;;;;5.60;2.53;;;;;;;8.35;100.00;99762.94;4932665;29;20032;-65
2022/09/27 07:27:14;;;;;;;1.90;1.60;;;;;;;8.41;100.00;99763.97;4932476;29;20479;-64
2022/09/27 07:29:39;;;;;;;3.15;1.80;;;;;;;8.41;100.00;99758.66;4950245;29;20039;-65
2022/09/27 07:32:04;;;;;;;3.92;1.92;;;;;;;8.43;100.00;99760.09;4950603;29;20097;-65
2022/09/27 07:34:32;;;;;;;4.93;2.58;;;;;;;8.49;100.00;99763.78;4950672;29;20034;-65
2022/09/27 07:36:59;;;;;;;10.48;3.20;;;;;;;8.51;100.00;99769.66;4939318;28;20030;-65
2022/09/27 07:39:25;;;;;;;4.03;2.30;;;;;;;8.50;100.00;99774.16;4935236;28;20042;-66
2022/09/27 07:41:51;;;;;;;7.97;2.63;;;;;;;8.38;100.00;99754.56;4937220;28;20108;-64
2022/09/27 07:44:16;;;;;;;2.30;2.05;;;;;;;8.54;100.00;99775.41;4937182;28;20142;-65
2022/09/27 07:46:42;;;;;;;3.50;2.00;;;;;;;8.54;100.00;99777.22;4935029;28;20047;-64
2022/09/27 07:49:07;;;;;;;5.95;2.13;;;;;;;8.54;100.00;99772.75;4936444;28;20031;-65
2022/09/27 07:51:32;;;;;;;3.78;2.42;;;;;;;8.55;100.00;99781.53;4935507;28;20126;-63
2022/09/27 07:54:00;;;;;;;3.58;1.80;;;;;;;8.55;100.00;99777.03;4935799;28;20036;-64
2022/09/27 07:56:25;;;;;;;3.10;2.10;;;;;;;8.59;100.00;99774.75;4936529;28;20750;-64
2022/09/27 07:58:51;;;;;;;5.15;2.58;;;;;;;8.63;100.00;99775.97;4936211;28;20067;-64
2022/09/27 08:01:16;;;;;;;4.00;2.28;;;;;;;8.65;100.00;99783.75;4936420;28;20036;-64
2022/09/27 08:03:42;;;;;;;4.30;3.10;;;;;;;8.67;100.00;99784.31;4935899;28;20039;-64
2022/09/27 08:06:08;;;;;;;3.88;2.72;;;;;;;8.70;100.00;99792.72;4935889;28;20043;-64
2022/09/27 08:08:33;;;;;;;6.20;3.20;;;;;;;8.75;100.00;99797.38;4936172;28;20035;-63
2022/09/27 08:10:59;;;;;;;5.50;3.28;;;;;;;8.76;100.00;99786.53;4935747;28;20066;-64
2022/09/27 08:13:24;;;;;;;5.22;2.55;;;;;;;8.78;100.00;99787.16;4934316;28;20038;-65
2022/09/27 08:15:51;;;;;;;5.80;2.60;;;;;;;8.85;100.00;99794.28;4932190;29;20384;-66
2022/09/27 08:18:16;;;;;;;5.18;2.88;;;;;;;8.89;100.00;99790.19;4950196;29;20023;-65
2022/09/27 08:20:42;;;;;;;5.63;2.67;;;;;;;8.92;100.00;99790.56;4950267;28;20086;-65
2022/09/27 08:23:07;;;;;;;5.50;3.10;;;;;;;9.00;100.00;99798.28;4953777;29;20058;-66
2022/09/27 08:25:33;;;;;;;8.18;3.20;;;;;;;9.07;100.00;99792.16;4953979;29;20114;-66
2022/09/27 08:28:01;;;;;;;5.22;2.83;;;;;;;9.12;100.00;99789.66;4953862;28;20897;-65
2022/09/27 08:30:31;;;;;;;8.40;2.97;;;;;;;9.13;100.00;99791.28;4953610;29;20186;-65
2022/09/27 08:32:58;;;;;;;6.70;3.13;;;;;;;9.19;100.00;99798.41;4953889;29;20031;-65
2022/09/27 08:35:24;;;;;;;6.40;3.67;;;;;;;9.21;100.00;99793.69;4953869;29;20471;-65
2022/09/27 08:37:54;;;;;;;6.20;3.05;;;;;;;9.18;100.00;99794.94;4953506;28;20046;-65
2022/09/27 08:40:22;;;;;;;7.88;3.10;;;;;;;9.24;100.00;99795.91;4953601;29;20050;-65
2022/09/27 08:43:25;;;;;;;5.63;3.72;;;;;;;9.32;100.00;99790.34;4953710;29;20870;-65
2022/09/27 08:46:07;;;;;;;8.57;3.92;;;;;;;9.37;100.00;99793.16;4953492;29;20035;-65
2022/09/27 08:48:36;;;;;;;11.32;4.63;;;;;;;9.39;100.00;99798.28;4953575;28;20406;-65
2022/09/27 08:51:04;;;;;;;7.05;3.80;;;;;;;9.41;100.00;99802.38;4953517;29;20063;-65
2022/09/27 08:53:43;;;;;;;6.63;4.07;;;;;;;9.46;100.00;99814.19;4953471;29;20031;-65
2022/09/27 08:56:11;;;;;;;6.95;4.28;;;;;;;9.40;100.00;99818.53;4953348;29;20122;-65
2022/09/27 08:58:45;;;;;;;5.47;3.92;;;;;;;9.41;100.00;99820.19;4953262;29;20035;-65
2022/09/27 09:01:14;;;;;;;8.65;4.22;;;;;;;9.37;100.00;99816.31;4953504;29;20031;-65
2022/09/27 09:03:48;;;;;;;10.20;5.00;;;;;;;9.31;100.00;99814.53;4953284;29;20387;-65
2022/09/27 09:06:26;;;;;;;9.15;4.72;;;;;;;9.28;100.00;99814.94;4953279;28;20030;-65
2022/09/27 09:09:03;;;;;;;9.48;5.18;;;;;;;9.25;100.00;99816.19;4952472;29;20043;-65
2022/09/27 09:14:37;;;;;;;11.60;5.00;;;;;;;9.20;100.00;99824.81;4953274;28;20042;-65
2022/09/27 09:17:19;;;;;;;10.55;5.07;;;;;;;9.19;100.00;99814.38;4952932;28;20034;-65
2022/09/27 09:20:12;;;;;;;10.60;5.20;;;;;;;9.23;100.00;99822.75;4953050;29;20066;-65
2022/09/27 09:23:20;;;;;;;13.02;5.72;;;;;;;9.20;100.00;99827.47;4952781;28;20098;-65
2022/09/27 09:26:03;;;;;;;11.07;6.03;;;;;;;9.23;100.00;99828.88;4952957;29;20037;-65
2022/09/27 09:28:44;;;;;;;15.77;7.20;;;;;;;9.25;100.00;99837.47;4952923;28;20122;-65
2022/09/27 09:31:28;;;;;;;12.38;6.07;;;;;;;9.24;100.00;99835.00;4952894;29;20023;-65
2022/09/27 09:34:05;;;;;;;12.52;6.07;;;;;;;9.17;100.00;99838.53;4952047;28;20030;-65
2022/09/27 09:37:01;;;;;;;14.57;6.97;;;;;;;9.15;100.00;99845.09;4952758;29;20082;-65
2022/09/27 09:39:38;;;;;;;12.35;6.10;;;;;;;9.09;100.00;99833.47;4925390;29;20047;-65
2022/09/27 09:42:06;;;;;;;11.02;5.75;;;;;;;9.05;100.00;99837.56;4934946;29;20090;-65
2022/09/27 09:45:03;;;;;;;10.48;6.03;;;;;;;9.06;100.00;99836.53;4934230;29;20078;-65
2022/09/27 09:47:35;;;;;;;10.68;6.05;;;;;;;9.06;100.00;99823.22;4934308;29;20035;-65
2022/09/27 09:50:42;;;;;;;15.57;6.78;;;;;;;9.13;100.00;99836.50;4934131;29;20234;-65
2022/09/27 09:53:11;;;;;;;13.75;6.72;;;;;;;9.18;100.00;99826.03;4952148;29;20035;-65
2022/09/27 09:55:41;;;;;;;10.90;5.55;;;;;;;9.22;100.00;99829.91;4952311;29;20106;-65
2022/09/27 09:58:25;;;;;;;10.82;5.13;;;;;;;9.21;100.00;99834.41;4952230;28;20027;-65
2022/09/27 10:00:54;;;;;;;13.57;6.05;;;;;;;9.13;100.00;99817.88;4952258;28;20046;-65
2022/09/27 10:03:21;;;;;;;11.88;4.82;;;;;;;9.10;100.00;99832.44;4952197;28;20031;-65
2022/09/27 10:05:46;;;;;;;6.90;2.95;;;;;;;8.94;100.00;99835.56;4952207;29;20079;-65
2022/09/27 10:08:20;;;;;;;6.43;1.83;;;;;;;8.82;100.00;99839.91;4951897;28;20062;-65
2022/09/27 10:10:46;;;;;;;2.03;1.35;;;;;;;8.74;100.00;99843.63;4952031;29;20067;-65
2022/09/27 10:13:16;;;;;;;1.63;1.13;;;;;;;8.66;100.00;99828.72;4952162;29;20071;-65
2022/09/27 10:15:48;;;;;;;1.70;0.80;;;;;;;8.56;100.00;99826.47;4951900;28;20425;-65
2022/09/27 10:18:16;;;;;;;;;;;;;;;8.60;100.00;99831.41;4952445;28;20023;-64
2022/09/27 10:20:56;;;;;;;2.08;0.95;;;;;;;8.54;100.00;99830.38;4951797;29;19997;-65
2022/09/27 10:23:24;;;;;;;1.65;1.02;;;;;;;8.55;100.00;99827.50;4951751;29;20055;-65
2022/09/27 10:25:52;;;;;;;2.33;1.00;;;;;;;8.59;100.00;99825.25;4951880;29;20089;-65
2022/09/27 10:28:40;;;;;;;2.75;1.45;;;;;;;8.64;100.00;99833.41;4951691;29;20112;-65
2022/09/27 10:31:09;;;;;;;2.95;1.42;;;;;;;8.68;100.00;99831.16;4942674;28;20451;-65
2022/09/27 10:33:38;;;;;;;3.65;1.98;;;;;;;8.80;100.00;99839.28;4936963;28;20046;-63
2022/09/27 10:36:20;;;;;;;4.57;2.38;;;;;;;8.88;100.00;99831.06;4938096;28;20078;-64
2022/09/27 10:38:52;;;;;;;5.40;2.45;;;;;;;8.93;100.00;99828.59;4937694;28;20028;-64
2022/09/27 10:41:22;;;;;;;2.30;1.92;;;;;;;8.97;100.00;99838.63;4937231;28;20191;-64
2022/09/27 10:43:48;;;;;;;3.25;1.65;;;;;;;9.03;100.00;99836.94;4936615;28;20031;-65
2022/09/27 10:46:27;;;;;;;2.03;1.52;;;;;;;9.03;100.00;99830.81;4936835;28;20114;-64
2022/09/27 10:49:29;;;;;;;4.25;1.40;;;;;;;9.03;100.00;99839.63;4937257;28;20029;-65
2022/09/27 10:52:01;;;;;;;1.38;1.25;;;;;;;9.04;100.00;99833.28;4936007;28;20077;-64
2022/09/27 10:54:29;;;;;;;2.50;1.30;;;;;;;9.07;100.00;99830.19;4936549;28;20028;-65
2022/09/27 10:57:03;;;;;;;2.05;1.10;;;;;;;9.03;100.00;99828.97;4936375;28;20123;-64
2022/09/27 10:59:33;;;;;;;1.38;0.88;;;;;;;8.95;100.00;99832.69;4936562;28;20423;-65
2022/09/27 11:01:59;;;;;;;4.43;1.20;;;;;;;8.93;100.00;99836.59;4935524;28;20043;-64
2022/09/27 11:04:31;;;;;;;2.10;0.95;;;;;;;8.95;100.00;99829.22;4936905;28;20809;-65
2022/09/27 11:07:15;;;;;;;2.67;0.90;;;;;;;9.05;100.00;99834.09;4936681;28;20038;-64
2022/09/27 11:10:01;;;;;;;4.72;1.60;;;;;;;9.15;100.00;99827.28;4936130;28;20125;-64
2022/09/27 11:12:29;;;;;;;3.53;0.80;;;;;;;9.15;100.00;99829.94;4936242;28;20126;-64
2022/09/27 11:15:13;;;;;;;1.05;0.93;;;;;;;9.16;100.00;99825.44;4936262;28;21452;-65
2022/09/27 11:18:03;;;;;;;1.50;0.80;;;;;;;9.21;100.00;99828.28;4936691;28;20074;-65
2022/09/27 11:20:52;;;;;;;0.95;0.88;;;;;;;9.23;100.00;99828.88;4935729;28;20332;-64
2022/09/27 11:23:20;;;;;;;1.35;1.17;;;;;;;9.22;100.00;99835.22;4936044;28;20051;-64
2022/09/27 11:26:02;;;;;;;0.70;0.65;;;;;;;9.18;100.00;99837.50;4935881;28;20131;-64
2022/09/27 11:28:52;;;;;;;1.17;1.00;;;;;;;9.27;100.00;99835.41;4935932;28;20023;-64
2022/09/27 11:31:45;;;;;;;1.67;0.73;;;;;;;9.37;100.00;99838.41;4937003;28;20067;-66
2022/09/27 11:34:39;;;;;;;2.78;1.52;;;;;;;9.38;100.00;99836.59;4936267;28;20075;-64
2022/09/27 11:37:40;;;;;;;1.10;0.90;;;;;;;9.42;100.00;99835.94;4936922;28;20039;-64
2022/09/27 11:40:56;;;;;;;0.68;0.60;;;;;;;9.49;100.00;99835.91;4919400;28;20052;-64
2022/09/27 11:43:46;;;;;;;1.65;0.77;;;;;;;9.53;100.00;99839.75;4936641;28;20039;-65
2022/09/27 11:46:34;;;;;;;0.70;0.70;;;;;;;9.61;100.00;99839.47;4935120;28;20114;-64
2022/09/27 11:49:07;;;;;;;2.00;1.23;;;;;;;9.61;100.00;99836.81;4944570;29;20035;-64
2022/09/27 11:51:45;;;;;;;1.48;1.10;;;;;;;9.62;100.00;99830.47;4950504;29;20114;-64
2022/09/27 11:54:30;;;;;;;0.60;0.60;;;;;;;9.56;100.00;99831.34;4950468;29;20048;-64
2022/09/27 11:57:17;;;;;;;2.95;0.80;;;;;;;9.53;100.00;99820.31;4952404;28;20074;-66
2022/09/27 11:59:46;;;;;;;1.80;0.68;;;;;;;9.57;100.00;99817.00;4954378;28;20102;-66
2022/09/27 12:02:23;;;;;;;0.90;0.90;;;;;;;9.65;100.00;99818.59;4954500;29;20444;-66
2022/09/27 12:05:19;;;;;;;1.50;0.57;;;;;;;9.68;100.00;99806.69;4954289;29;20438;-66